createdAt,value
2018-09-28T00:01:46.993Z,5.10
2018-09-28T00:04:15.654Z,4.00
2018-09-28T00:06:44.311Z,8.07
2018-09-28T00:09:12.968Z,4.23
2018-09-28T00:11:41.694Z,6.17
2018-09-28T00:14:10.496Z,3.97
2018-09-28T00:16:39.145Z,6.00
2018-09-28T00:19:07.813Z,4.40
2018-09-28T00:21:36.466Z,3.30
2018-09-28T00:24:05.137Z,3.10
2018-09-28T00:26:33.790Z,4.57
2018-09-28T00:29:02.517Z,2.53
2018-09-28T00:31:31.169Z,2.87
2018-09-28T00:33:59.838Z,3.33
2018-09-28T00:36:28.491Z,5.47
2018-09-28T00:38:57.225Z,5.70
2018-09-28T00:41:25.877Z,3.50
2018-09-28T00:43:54.530Z,3.90
2018-09-28T00:46:23.252Z,6.03
2018-09-28T00:48:51.957Z,6.57
2018-09-28T00:51:20.602Z,9.03
2018-09-28T00:53:49.270Z,9.27
2018-09-28T00:56:17.904Z,9.53
2018-09-28T00:58:46.566Z,10.23
2018-09-28T01:01:15.217Z,10.87
2018-09-28T01:03:43.868Z,12.40
2018-09-28T01:06:12.522Z,10.73
2018-09-28T01:08:41.182Z,13.27
2018-09-28T01:11:09.834Z,12.43
2018-09-28T01:13:38.494Z,11.83
2018-09-28T01:16:07.151Z,12.73
2018-09-28T01:18:35.805Z,12.00
2018-09-28T01:21:04.468Z,14.27
2018-09-28T01:23:33.137Z,13.97
2018-09-28T01:26:01.858Z,15.60
2018-09-28T01:28:30.492Z,13.97
2018-09-28T01:30:59.150Z,14.93
2018-09-28T01:33:27.810Z,15.47
2018-09-28T01:35:56.477Z,17.77
2018-09-28T01:38:25.158Z,16.23
2018-09-28T01:40:53.812Z,17.97
2018-09-28T01:43:22.516Z,18.50
2018-09-28T01:45:51.207Z,16.17
2018-09-28T01:48:19.853Z,21.57
2018-09-28T01:50:48.522Z,17.93
2018-09-28T01:53:17.254Z,20.93
2018-09-28T01:55:45.917Z,19.97
2018-09-28T01:58:14.597Z,18.67
2018-09-28T02:00:43.329Z,19.40
2018-09-28T02:03:12.027Z,20.23
2018-09-28T02:05:40.641Z,19.60
2018-09-28T02:08:09.303Z,22.40
2018-09-28T02:10:37.963Z,22.10
2018-09-28T02:13:06.604Z,27.47
2018-09-28T02:15:35.262Z,22.27
2018-09-28T02:18:03.913Z,22.17
2018-09-28T02:20:32.567Z,21.77
2018-09-28T02:23:01.225Z,24.20
2018-09-28T02:25:29.885Z,21.57
2018-09-28T02:27:58.538Z,24.77
2018-09-28T02:30:27.214Z,19.13
2018-09-28T02:32:55.865Z,20.80
2018-09-28T02:35:24.527Z,22.53
2018-09-28T02:37:53.732Z,21.50
2018-09-28T02:40:22.401Z,21.70
2018-09-28T02:42:51.063Z,22.90
2018-09-28T02:45:19.725Z,22.80
2018-09-28T02:47:48.374Z,24.20
2018-09-28T02:50:17.040Z,22.23
2018-09-28T02:52:45.706Z,20.83
2018-09-28T02:55:14.386Z,23.33
2018-09-28T02:57:43.038Z,23.03
2018-09-28T03:00:11.697Z,23.23
2018-09-28T03:02:40.367Z,26.27
2018-09-28T03:05:09.026Z,22.30
2018-09-28T03:07:37.687Z,20.17
2018-09-28T03:10:06.359Z,22.93
2018-09-28T03:12:35.018Z,21.13
2018-09-28T03:15:03.719Z,20.07
2018-09-28T03:17:32.378Z,23.77
2018-09-28T03:20:01.043Z,24.33
2018-09-28T03:22:29.698Z,23.00
2018-09-28T03:24:58.372Z,21.73
2018-09-28T03:27:27.035Z,24.00
2018-09-28T03:29:55.782Z,25.27
2018-09-28T03:32:24.443Z,24.60
2018-09-28T03:34:53.230Z,20.13
2018-09-28T03:37:21.894Z,22.67
2018-09-28T03:39:51.227Z,22.53
2018-09-28T03:42:19.898Z,21.83
2018-09-28T03:44:48.575Z,19.40
2018-09-28T03:47:17.277Z,23.87
2018-09-28T03:49:45.943Z,24.57
2018-09-28T03:52:14.619Z,21.13
2018-09-28T03:54:43.281Z,21.13
2018-09-28T03:57:11.950Z,22.97
2018-09-28T03:59:40.635Z,21.27
2018-09-28T04:02:09.294Z,22.73
2018-09-28T04:04:37.938Z,23.63
2018-09-28T04:07:06.612Z,24.73
2018-09-28T04:09:35.267Z,21.83
2018-09-28T04:12:03.931Z,21.47
2018-09-28T04:14:32.614Z,23.00
2018-09-28T04:17:01.283Z,23.83
2018-09-28T04:19:29.980Z,25.13
2018-09-28T04:22:00.895Z,25.80
2018-09-28T04:24:30.618Z,27.37
2018-09-28T04:26:59.309Z,22.87
2018-09-28T04:29:27.965Z,22.87
2018-09-28T04:31:56.646Z,24.80
2018-09-28T04:34:25.310Z,23.70
2018-09-28T04:36:53.989Z,24.50
2018-09-28T04:39:22.674Z,23.03
2018-09-28T04:41:51.369Z,21.57
2018-09-28T04:44:19.997Z,26.37
2018-09-28T04:46:48.649Z,25.63
2018-09-28T04:49:17.318Z,26.60
2018-09-28T04:51:45.972Z,24.63
2018-09-28T04:54:14.631Z,23.20
2018-09-28T04:56:43.295Z,24.83
2018-09-28T04:59:12.048Z,28.20
2018-09-28T05:01:40.709Z,26.00
2018-09-28T05:04:09.366Z,27.13
2018-09-28T05:06:38.092Z,25.03
2018-09-28T05:09:09.138Z,27.90
2018-09-28T05:11:37.828Z,26.40
2018-09-28T05:14:06.494Z,26.63
2018-09-28T05:16:35.182Z,24.63
2018-09-28T05:19:03.829Z,24.70
2018-09-28T05:21:32.737Z,27.50
2018-09-28T05:24:01.404Z,27.60
2018-09-28T05:26:30.209Z,30.00
2018-09-28T05:28:59.013Z,29.13
2018-09-28T05:31:27.786Z,29.40
2018-09-28T05:33:56.386Z,33.97
2018-09-28T05:36:25.071Z,34.10
2018-09-28T05:38:53.755Z,34.80
2018-09-28T05:41:22.452Z,37.43
2018-09-28T05:43:51.166Z,40.60
2018-09-28T05:46:19.841Z,35.17
2018-09-28T05:48:48.478Z,39.43
2018-09-28T05:51:17.280Z,37.83
2018-09-28T05:53:45.913Z,38.00
2018-09-28T05:56:14.573Z,37.90
2018-09-28T05:58:48.653Z,36.53
2018-09-28T06:01:22.735Z,41.07
2018-09-28T06:03:56.938Z,41.20
2018-09-28T06:06:25.611Z,41.17
2018-09-28T06:08:54.286Z,44.07
2018-09-28T06:11:22.950Z,44.70
2018-09-28T06:13:51.719Z,41.23
2018-09-28T06:16:20.410Z,47.23
2018-09-28T06:18:49.115Z,47.03
2018-09-28T06:21:17.757Z,46.43
2018-09-28T06:23:46.457Z,42.43
2018-09-28T06:26:15.171Z,44.17
2018-09-28T06:28:43.834Z,47.27
2018-09-28T06:31:12.523Z,55.77
2018-09-28T06:33:41.178Z,46.57
2018-09-28T06:36:09.930Z,49.27
2018-09-28T06:38:38.549Z,42.73
2018-09-28T06:41:07.214Z,37.07
2018-09-28T06:43:35.871Z,36.60
2018-09-28T06:46:04.544Z,32.93
2018-09-28T06:48:33.213Z,39.87
2018-09-28T06:51:01.896Z,36.23
2018-09-28T06:53:30.554Z,39.67
2018-09-28T06:55:59.266Z,38.20
2018-09-28T06:58:27.950Z,40.77
2018-09-28T07:00:56.625Z,41.07
2018-09-28T07:03:25.318Z,43.80
2018-09-28T07:05:54.048Z,51.23
2018-09-28T07:08:22.695Z,55.30
2018-09-28T07:10:51.362Z,56.17
2018-09-28T07:13:20.086Z,58.40
2018-09-28T07:15:48.730Z,61.53
2018-09-28T07:18:17.416Z,53.07
2018-09-28T07:20:46.058Z,54.30
2018-09-28T07:23:14.718Z,57.47
2018-09-28T07:25:43.490Z,60.57
2018-09-28T07:28:12.159Z,53.77
2018-09-28T07:30:40.819Z,65.03
2018-09-28T07:33:09.644Z,57.67
2018-09-28T07:35:38.314Z,51.20
2018-09-28T07:38:06.984Z,53.17
2018-09-28T07:40:35.649Z,51.97
2018-09-28T07:43:04.407Z,54.40
2018-09-28T07:45:33.071Z,53.27
2018-09-28T07:48:01.814Z,49.10
2018-09-28T07:50:30.451Z,51.03
2018-09-28T07:52:59.154Z,52.17
2018-09-28T07:55:27.825Z,50.50
2018-09-28T07:57:56.521Z,45.37
2018-09-28T08:00:25.177Z,43.73
2018-09-28T08:02:53.858Z,46.20
2018-09-28T08:05:22.573Z,42.43
2018-09-28T08:07:51.267Z,45.60
2018-09-28T08:10:19.939Z,46.83
2018-09-28T08:12:48.594Z,47.33
2018-09-28T08:15:17.286Z,46.33
2018-09-28T08:17:46.209Z,42.20
2018-09-28T08:20:14.817Z,43.77
2018-09-28T08:22:43.501Z,41.30
2018-09-28T08:25:12.260Z,43.93
2018-09-28T08:27:40.974Z,39.50
2018-09-28T08:30:09.698Z,41.20
2018-09-28T08:32:38.358Z,39.80
2018-09-28T08:35:07.010Z,40.90
2018-09-28T08:37:35.719Z,39.30
2018-09-28T08:40:04.466Z,34.13
2018-09-28T08:42:33.259Z,31.40
2018-09-28T08:45:01.946Z,27.40
2018-09-28T08:47:30.733Z,30.73
2018-09-28T08:49:59.371Z,22.60
2018-09-28T08:52:28.035Z,26.20
2018-09-28T08:54:56.699Z,21.33
2018-09-28T08:57:26.315Z,14.70
2018-09-28T08:59:55.004Z,15.83
2018-09-28T09:02:23.653Z,19.87
2018-09-28T09:04:52.383Z,15.40
2018-09-28T09:07:21.074Z,18.00
2018-09-28T09:09:49.753Z,18.63
2018-09-28T09:12:18.429Z,16.67
2018-09-28T09:14:47.091Z,14.07
2018-09-28T09:17:15.863Z,13.50
2018-09-28T09:19:44.610Z,10.70
2018-09-28T09:22:13.269Z,13.07
2018-09-28T09:24:41.926Z,7.73
2018-09-28T09:27:10.615Z,10.30
2018-09-28T09:29:39.263Z,14.23
2018-09-28T09:32:07.911Z,14.37
2018-09-28T09:34:36.582Z,10.87
2018-09-28T09:37:05.345Z,10.57
2018-09-28T09:39:34.018Z,9.30
2018-09-28T09:42:02.701Z,10.73
2018-09-28T09:44:31.378Z,14.90
2018-09-28T09:47:00.061Z,10.90
2018-09-28T09:49:28.759Z,11.23
2018-09-28T09:51:57.417Z,11.70
2018-09-28T09:54:26.077Z,10.90
2018-09-28T09:56:54.739Z,7.87
2018-09-28T09:59:23.404Z,12.87
2018-09-28T10:01:57.645Z,13.80
2018-09-28T10:04:26.326Z,9.20
2018-09-28T10:06:55.007Z,10.60
2018-09-28T10:09:23.670Z,6.77
2018-09-28T10:11:52.317Z,9.03
2018-09-28T10:14:20.984Z,12.70
2018-09-28T10:16:49.798Z,9.37
2018-09-28T10:19:18.523Z,11.60
2018-09-28T10:21:47.119Z,13.97
2018-09-28T10:24:15.788Z,7.93
2018-09-28T10:26:44.458Z,7.53
2018-09-28T10:29:13.148Z,10.47
2018-09-28T10:31:41.819Z,7.73
2018-09-28T10:34:10.555Z,10.13
2018-09-28T10:36:39.167Z,11.83
2018-09-28T10:39:08.123Z,11.30
2018-09-28T10:41:36.937Z,7.67
2018-09-28T10:44:05.945Z,11.77
2018-09-28T10:46:34.765Z,7.57
2018-09-28T10:49:03.372Z,8.50
2018-09-28T10:51:32.021Z,7.93
2018-09-28T10:54:00.690Z,7.60
2018-09-28T10:56:29.360Z,8.77
2018-09-28T10:58:58.180Z,8.30
2018-09-28T11:01:26.714Z,7.37
2018-09-28T11:03:55.373Z,7.30
2018-09-28T11:06:24.039Z,9.83
2018-09-28T11:08:52.764Z,7.40
2018-09-28T11:11:21.470Z,7.33
2018-09-28T11:13:50.139Z,5.53
2018-09-28T11:16:18.840Z,7.73
2018-09-28T11:18:47.535Z,7.17
2018-09-28T11:21:16.244Z,10.00
2018-09-28T11:23:45.013Z,8.53
2018-09-28T11:26:13.757Z,7.20
2018-09-28T11:28:42.470Z,9.27
2018-09-28T11:31:11.934Z,6.70
2018-09-28T11:33:40.696Z,13.73
2018-09-28T11:36:09.333Z,6.57
2018-09-28T11:38:37.966Z,7.87
2018-09-28T11:41:08.087Z,5.73
2018-09-28T11:43:36.833Z,4.27
2018-09-28T11:46:05.544Z,11.07
2018-09-28T11:48:34.188Z,7.07
2018-09-28T11:51:02.881Z,7.03
2018-09-28T11:53:31.551Z,8.40
2018-09-28T11:56:00.199Z,5.47
2018-09-28T11:58:29.138Z,9.70
2018-09-28T12:00:57.793Z,6.53
2018-09-28T12:03:26.518Z,4.50
2018-09-28T12:05:55.101Z,8.10
2018-09-28T12:08:23.770Z,6.73
2018-09-28T12:10:52.438Z,8.10
2018-09-28T12:13:21.094Z,7.27
2018-09-28T12:15:49.787Z,9.33
2018-09-28T12:18:18.478Z,7.17
2018-09-28T12:20:47.093Z,7.13
2018-09-28T12:23:15.767Z,9.40
2018-09-28T12:25:44.431Z,9.33
2018-09-28T12:28:13.123Z,8.57
2018-09-28T12:30:41.825Z,9.57
2018-09-28T12:33:10.591Z,5.93
2018-09-28T12:35:39.200Z,9.63
2018-09-28T12:38:07.902Z,7.20
2018-09-28T12:40:36.670Z,8.43
2018-09-28T12:43:05.330Z,6.13
2018-09-28T12:45:34.083Z,10.50
2018-09-28T12:48:02.720Z,7.10
2018-09-28T12:50:31.384Z,6.50
2018-09-28T12:53:00.011Z,9.80
2018-09-28T12:55:28.666Z,9.43
2018-09-28T12:57:57.325Z,8.70
2018-09-28T13:00:26.104Z,7.33
2018-09-28T13:02:54.646Z,7.00
2018-09-28T13:05:23.321Z,8.83
2018-09-28T13:07:51.985Z,7.10
2018-09-28T13:10:20.640Z,9.90
2018-09-28T13:12:49.348Z,11.10
2018-09-28T13:15:17.973Z,11.20
2018-09-28T13:17:46.595Z,7.60
2018-09-28T13:20:15.277Z,9.83
2018-09-28T13:22:43.918Z,8.47
2018-09-28T13:25:12.579Z,8.97
2018-09-28T13:27:41.961Z,8.63
2018-09-28T13:30:10.694Z,9.83
2018-09-28T13:32:39.340Z,8.90
2018-09-28T13:35:07.970Z,9.53
2018-09-28T13:37:36.628Z,5.83
2018-09-28T13:40:05.288Z,8.53
2018-09-28T13:42:34.014Z,7.00
2018-09-28T13:45:02.705Z,5.87
2018-09-28T13:47:31.419Z,5.27
2018-09-28T13:50:00.067Z,6.53
2018-09-28T13:52:28.769Z,5.77
2018-09-28T13:54:57.391Z,6.67
2018-09-28T13:57:26.063Z,5.53
2018-09-28T13:59:54.747Z,9.13
2018-09-28T14:02:23.460Z,7.10
2018-09-28T14:04:52.072Z,5.33
2018-09-28T14:07:20.720Z,7.30
2018-09-28T14:09:49.407Z,9.97
2018-09-28T14:12:18.123Z,9.03
2018-09-28T14:14:46.868Z,8.80
2018-09-28T14:17:15.527Z,8.63
2018-09-28T14:19:44.218Z,5.63
2018-09-28T14:22:13.226Z,5.03
2018-09-28T14:24:41.931Z,5.60
2018-09-28T14:27:10.633Z,5.77
2018-09-28T14:29:39.378Z,6.47
2018-09-28T14:32:08.118Z,4.53
2018-09-28T14:34:36.928Z,5.70
2018-09-28T14:37:05.579Z,4.97
2018-09-28T14:39:34.222Z,5.50
2018-09-28T14:42:02.972Z,5.37
2018-09-28T14:44:31.542Z,3.53
2018-09-28T14:47:00.335Z,4.57
2018-09-28T14:49:28.994Z,3.77
2018-09-28T14:51:57.641Z,3.77
2018-09-28T14:54:26.338Z,3.70
2018-09-28T14:56:54.983Z,5.70
2018-09-28T14:59:23.759Z,5.97
2018-09-28T15:01:52.402Z,4.07
2018-09-28T15:04:21.191Z,5.03
2018-09-28T15:06:49.978Z,4.40
2018-09-28T15:09:18.552Z,9.77
2018-09-28T15:11:47.304Z,4.10
2018-09-28T15:14:15.999Z,5.47
2018-09-28T15:16:44.725Z,6.53
2018-09-28T15:19:13.481Z,7.53
2018-09-28T15:21:42.144Z,4.77
2018-09-28T15:24:10.829Z,9.13
2018-09-28T15:26:39.512Z,4.70
2018-09-28T15:29:08.243Z,4.93
2018-09-28T15:31:36.975Z,8.33
2018-09-28T15:34:05.694Z,4.90
2018-09-28T15:36:34.517Z,5.90
2018-09-28T15:39:04.498Z,4.30
2018-09-28T15:41:33.245Z,4.07
2018-09-28T15:44:01.904Z,6.93
2018-09-28T15:46:30.546Z,4.60
2018-09-28T15:48:59.285Z,5.70
2018-09-28T15:51:27.975Z,2.83
2018-09-28T15:53:56.733Z,5.43
2018-09-28T15:56:25.383Z,4.73
2018-09-28T15:58:54.026Z,4.47
2018-09-28T16:01:22.715Z,3.17
2018-09-28T16:03:51.353Z,5.80
2018-09-28T16:06:19.993Z,4.97
2018-09-28T16:08:48.637Z,4.30
2018-09-28T16:11:17.365Z,4.17
2018-09-28T16:13:45.999Z,4.03
2018-09-28T16:16:14.691Z,5.80
2018-09-28T16:18:43.354Z,3.87
2018-09-28T16:21:11.986Z,7.57
2018-09-28T16:23:40.634Z,7.17
2018-09-28T16:26:09.362Z,6.93
2018-09-28T16:28:38.026Z,4.10
2018-09-28T16:31:06.739Z,6.37
2018-09-28T16:33:35.675Z,6.63
2018-09-28T16:36:04.355Z,7.93
2018-09-28T16:38:32.968Z,6.07
2018-09-28T16:41:01.641Z,4.23
2018-09-28T16:43:30.355Z,5.67
2018-09-28T16:45:59.050Z,8.70
2018-09-28T16:48:27.754Z,8.03
2018-09-28T16:50:56.406Z,6.60
2018-09-28T16:53:25.099Z,8.57
2018-09-28T16:55:54.073Z,7.37
2018-09-28T16:58:22.743Z,3.07
2018-09-28T17:00:51.473Z,5.43
2018-09-28T17:03:20.170Z,4.53
2018-09-28T17:05:48.800Z,4.97
2018-09-28T17:08:17.462Z,10.17
2018-09-28T17:10:46.125Z,9.77
2018-09-28T17:13:14.785Z,8.10
2018-09-28T17:15:43.457Z,12.77
2018-09-28T17:18:12.153Z,7.47
2018-09-28T17:20:40.935Z,9.97
2018-09-28T17:23:09.630Z,11.03
2018-09-28T17:25:38.313Z,7.63
2018-09-28T17:28:07.142Z,8.77
2018-09-28T17:30:35.899Z,9.33
2018-09-28T17:33:04.554Z,6.80
2018-09-28T17:35:33.246Z,6.90
2018-09-28T17:38:01.926Z,7.30
2018-09-28T17:40:30.627Z,8.50
2018-09-28T17:42:59.278Z,4.70
2018-09-28T17:45:27.934Z,4.00
2018-09-28T17:47:56.682Z,8.73
2018-09-28T17:50:25.347Z,6.27
2018-09-28T17:52:54.019Z,8.00
2018-09-28T17:55:22.686Z,10.23
2018-09-28T17:57:51.349Z,9.63
2018-09-28T18:00:20.006Z,9.30
2018-09-28T18:02:48.669Z,6.73
2018-09-28T18:05:17.375Z,5.97
2018-09-28T18:07:46.045Z,11.40
2018-09-28T18:10:14.703Z,9.50
2018-09-28T18:12:43.368Z,9.27
2018-09-28T18:15:12.166Z,19.27
2018-09-28T18:17:40.939Z,6.30
2018-09-28T18:20:09.652Z,7.97
2018-09-28T18:22:38.258Z,13.43
2018-09-28T18:25:06.918Z,9.40
2018-09-28T18:27:35.578Z,8.70
2018-09-28T18:30:04.639Z,5.97
2018-09-28T18:32:33.314Z,4.77
2018-09-28T18:35:02.025Z,5.40
2018-09-28T18:37:30.795Z,8.30
2018-09-28T18:39:59.458Z,8.17
2018-09-28T18:42:28.126Z,8.30
2018-09-28T18:44:56.798Z,4.53
2018-09-28T18:47:25.559Z,7.37
2018-09-28T18:49:54.182Z,8.03
2018-09-28T18:52:22.856Z,8.40
2018-09-28T18:54:51.543Z,6.07
2018-09-28T18:57:20.261Z,5.40
2018-09-28T18:59:49.037Z,8.73
2018-09-28T19:02:17.703Z,11.70
2018-09-28T19:04:46.350Z,5.77
2018-09-28T19:07:15.141Z,10.63
2018-09-28T19:09:43.895Z,6.33
2018-09-28T19:12:12.615Z,5.03
2018-09-28T19:14:41.231Z,8.70
2018-09-28T19:17:09.903Z,10.53
2018-09-28T19:19:38.551Z,6.30
2018-09-28T19:22:07.334Z,6.77
2018-09-28T19:24:35.998Z,8.67
2018-09-28T19:27:04.710Z,11.43
2018-09-28T19:29:33.391Z,8.90
2018-09-28T19:32:02.060Z,9.47
2018-09-28T19:34:30.700Z,14.57
2018-09-28T19:36:59.363Z,7.73
2018-09-28T19:39:28.437Z,8.97
2018-09-28T19:41:57.127Z,12.93
2018-09-28T19:44:25.791Z,10.30
2018-09-28T19:46:54.449Z,12.67
2018-09-28T19:49:23.206Z,11.03
2018-09-28T19:51:51.861Z,9.27
2018-09-28T19:54:20.526Z,6.73
2018-09-28T19:56:49.187Z,14.63
2018-09-28T19:59:17.849Z,10.90
2018-09-28T20:01:46.583Z,8.93
2018-09-28T20:04:15.485Z,8.37
2018-09-28T20:06:44.138Z,7.83
2018-09-28T20:09:12.883Z,8.83
2018-09-28T20:11:42.030Z,5.57
2018-09-28T20:14:10.768Z,7.33
2018-09-28T20:16:39.936Z,8.37
2018-09-28T20:19:11.171Z,7.33
2018-09-28T20:21:40.301Z,7.27
2018-09-28T20:24:09.053Z,6.40
2018-09-28T20:26:37.609Z,6.43
2018-09-28T20:29:06.986Z,6.13
2018-09-28T20:31:35.944Z,8.47
2018-09-28T20:34:05.030Z,9.90
2018-09-28T20:36:33.675Z,5.53
2018-09-28T20:39:02.350Z,7.57
2018-09-28T20:41:31.301Z,6.30
2018-09-28T20:43:59.946Z,10.90
2018-09-28T20:46:28.592Z,9.07
2018-09-28T20:48:57.304Z,6.40
2018-09-28T20:51:25.947Z,6.50
2018-09-28T20:53:54.707Z,11.55
2018-09-28T20:56:23.709Z,5.10
2018-09-28T20:58:52.610Z,8.88
2018-09-28T21:01:21.250Z,8.57
2018-09-28T21:03:50.153Z,7.43
2018-09-28T21:06:19.095Z,8.48
2018-09-28T21:08:48.210Z,8.15
2018-09-28T21:11:16.853Z,6.33
2018-09-28T21:13:45.622Z,8.23
2018-09-28T21:16:14.442Z,5.33
2018-09-28T21:18:43.077Z,4.83
2018-09-28T21:21:11.743Z,5.33
2018-09-28T21:23:40.480Z,5.17
2018-09-28T21:26:09.080Z,5.05
2018-09-28T21:28:37.739Z,5.63
2018-09-28T21:31:07.145Z,5.15
2018-09-28T21:33:35.998Z,6.10
2018-09-28T21:36:04.906Z,11.97
2018-09-28T21:38:33.567Z,7.05
2018-09-28T21:41:02.215Z,6.37
2018-09-28T21:43:30.886Z,4.33
2018-09-28T21:45:59.525Z,6.22
2018-09-28T21:48:28.181Z,6.53
2018-09-28T21:50:56.838Z,9.83
2018-09-28T21:53:25.504Z,7.92
2018-09-28T21:55:54.184Z,7.70
2018-09-28T21:58:22.838Z,4.67
2018-09-28T22:00:56.457Z,6.80
2018-09-28T22:03:25.353Z,6.28
2018-09-28T22:05:54.047Z,8.18
2018-09-28T22:08:22.702Z,7.17
2018-09-28T22:10:51.459Z,6.62
2018-09-28T22:13:20.087Z,11.38
2018-09-28T22:15:48.755Z,7.35
2018-09-28T22:18:17.410Z,2.35
2018-09-28T22:20:46.067Z,10.68
2018-09-28T22:23:16.164Z,8.18
2018-09-28T22:25:44.823Z,11.55
2018-09-28T22:28:13.490Z,9.38
2018-09-28T22:30:42.164Z,7.22
2018-09-28T22:33:10.814Z,7.65
2018-09-28T22:35:39.461Z,8.23
2018-09-28T22:38:08.102Z,7.37
2018-09-28T22:40:36.780Z,9.33
2018-09-28T22:43:05.641Z,8.63
2018-09-28T22:45:34.345Z,9.90
2018-09-28T22:48:02.994Z,9.35
2018-09-28T22:50:31.653Z,8.98
2018-09-28T22:53:00.309Z,6.35
2018-09-28T22:55:28.961Z,12.70
2018-09-28T22:57:57.610Z,8.75
2018-09-28T23:00:26.271Z,6.97
2018-09-28T23:02:54.930Z,6.47
2018-09-28T23:05:23.585Z,7.28
2018-09-28T23:07:52.274Z,7.83
2018-09-28T23:10:20.943Z,9.20
2018-09-28T23:12:49.607Z,10.38
2018-09-28T23:15:18.267Z,9.83
2018-09-28T23:17:46.914Z,10.15
2018-09-28T23:20:15.553Z,8.73
2018-09-28T23:22:44.207Z,11.70
2018-09-28T23:25:12.930Z,9.50
2018-09-28T23:27:41.550Z,7.67
2018-09-28T23:30:10.219Z,11.12
2018-09-28T23:32:38.853Z,9.15
2018-09-28T23:35:07.514Z,8.88
2018-09-28T23:37:36.194Z,6.67
2018-09-28T23:40:05.194Z,11.50
2018-09-28T23:42:33.842Z,10.90
2018-09-28T23:45:02.513Z,11.40
2018-09-28T23:47:31.181Z,8.60
2018-09-28T23:49:59.822Z,10.85
2018-09-28T23:52:28.478Z,10.30
2018-09-28T23:54:57.139Z,11.93
2018-09-28T23:57:25.788Z,8.10
2018-09-28T23:59:54.446Z,14.43
